UWZ Friesheimer Busch
Wetterdaten: aktuell Donnerstag, 20.02.2020 09:00
Datum Zeit Temp. I. Temp. A. Temp. Wind Windchill X Feuchte I. Feuchte A. Luftdruck Regen Wind Richtung Richtung Taupunkt Windchill Windben
20.02.2020 09:00 7,0 C 7,1 C 0,0 C 0,0 C 74 % 89 % 1055,8 hPa 0,0 mm 0,0 km/h (0 Bft) N 360 5,4 C 0,0 C 0,0 km/h (0 Bft)
20.02.2020 08:06 7,0 C 6,8 C 0,0 C 0,0 C 74 % 89 % 1055,8 hPa 0,0 mm 0,0 km/h (0 Bft) N 360 5,1 C 0,0 C 0,0 km/h (0 Bft)
20.02.2020 07:04 6,8 C 6,6 C 0,0 C 0,0 C 74 % 89 % 1055,8 hPa 0,0 mm 0,0 km/h (0 Bft) N 360 4,9 C 0,0 C 0,0 km/h (0 Bft)
20.02.2020 06:02 6,7 C 6,7 C 0,0 C 0,0 C 74 % 88 % 1055,8 hPa 0,0 mm 0,0 km/h (0 Bft) N 360 4,9 C 0,0 C 0,0 km/h (0 Bft)
20.02.2020 04:34 6,4 C 6,3 C 0,0 C 0,0 C 73 % 87 % 1055,8 hPa 0,0 mm 0,0 km/h (0 Bft) - - 0 4,3 C 0,0 C 0,0 km/h (0 Bft)
20.02.2020 03:32 6,2 C 5,9 C 0,0 C 0,0 C 73 % 87 % 1055,8 hPa 0,0 mm 0,0 km/h (0 Bft) - - 0 3,9 C 0,0 C 0,0 km/h (0 Bft)
20.02.2020 02:30 6,2 C 5,3 C 0,0 C 0,0 C 73 % 88 % 1055,8 hPa 0,0 mm 0,0 km/h (0 Bft) N 360 3,5 C 0,0 C 0,0 km/h (0 Bft)
20.02.2020 01:30 6,2 C 5,0 C 0,0 C 0,0 C 72 % 87 % 1055,8 hPa 0,0 mm 0,0 km/h (0 Bft) N 360 3,0 C 0,0 C 0,0 km/h (0 Bft)
20.02.2020 00:30 6,1 C 4,8 C 0,0 C 0,0 C 72 % 87 % 1055,8 hPa 0,0 mm 0,0 km/h (0 Bft) N 360 2,8 C 0,0 C 0,0 km/h (0 Bft)
19.02.2020 23:30 6,4 C 4,4 C 0,0 C 0,0 C 72 % 87 % 1055,8 hPa 0,0 mm 0,0 km/h (0 Bft) N 360 2,4 C 0,0 C 0,0 km/h (0 Bft)
19.02.2020 22:30 6,4 C 4,4 C 0,0 C 0,0 C 72 % 84 % 1055,8 hPa 0,0 mm 0,0 km/h (0 Bft) N 360 1,9 C 0,0 C 0,0 km/h (0 Bft)
19.02.2020 21:31 6,8 C 3,3 C 0,0 C 0,0 C 72 % 85 % 1055,8 hPa 0,0 mm 0,0 km/h (0 Bft) N 360 1,0 C 0,0 C 0,0 km/h (0 Bft)
19.02.2020 20:09 7,6 C 2,6 C 0,0 C 0,0 C 71 % 81 % 1055,8 hPa 0,0 mm 0,0 km/h (0 Bft) - - 0 -0,3 C 0,0 C 0,0 km/h (0 Bft)
19.02.2020 19:07 9,1 C 4,8 C 0,0 C 0,0 C 72 % 73 % 1042,5 hPa 0,0 mm 0,0 km/h (0 Bft) - - 0 0,4 C 0,0 C 0,0 km/h (0 Bft)
19.02.2020 18:05 9,8 C 6,4 C 0,0 C 0,0 C 72 % 69 % 1043,0 hPa 0,0 mm 0,0 km/h (0 Bft) - - 0 1,1 C 0,0 C 0,0 km/h (0 Bft)
19.02.2020 17:03 9,9 C 7,1 C 0,0 C 0,0 C 72 % 68 % 1043,2 hPa 0,0 mm 0,0 km/h (0 Bft) - - 0 1,6 C 0,0 C 0,0 km/h (0 Bft)
19.02.2020 16:00 10,0 C 7,5 C 0,0 C 0,0 C 73 % 70 % 1043,2 hPa 0,0 mm 0,0 km/h (0 Bft) N 360 2,4 C 0,0 C 0,0 km/h (0 Bft)
19.02.2020 15:00 9,6 C 7,4 C 0,0 C 0,0 C 73 % 69 % 1041,1 hPa 0,0 mm 0,0 km/h (0 Bft) N 360 2,1 C 0,0 C 0,0 km/h (0 Bft)
19.02.2020 14:00 8,9 C 7,9 C 0,0 C 0,0 C 73 % 72 % 1041,1 hPa 0,0 mm 0,0 km/h (0 Bft) N 360 3,2 C 0,0 C 0,0 km/h (0 Bft)
19.02.2020 13:26 8,6 C 7,5 C 0,0 C 0,0 C 73 % 74 % 1055,8 hPa 0,0 mm 0,0 km/h (0 Bft) N 360 3,2 C 0,0 C 0,0 km/h (0 Bft)
19.02.2020 12:08 7,8 C 6,8 C 0,0 C 0,0 C 73 % 79 % 1055,8 hPa 0,0 mm 0,0 km/h (0 Bft) N 360 3,4 C 0,0 C 0,0 km/h (0 Bft)
19.02.2020 11:38 7,2 C 6,3 C 0,0 C 0,0 C 74 % 79 % 1075,8 hPa 0,0 mm 0,0 km/h (0 Bft) N 360 2,9 C 0,0 C 0,0 km/h (0 Bft)
19.02.2020 11:08 6,8 C 6,1 C 0,0 C 0,0 C 74 % 82 % 1075,8 hPa 0,0 mm 0,0 km/h (0 Bft) N 360 3,3 C 0,0 C 0,0 km/h (0 Bft)
19.02.2020 10:08 6,1 C 5,5 C 0,0 C 0,0 C 74 % 84 % 1075,8 hPa 0,0 mm 0,0 km/h (0 Bft) N 360 3,0 C 0,0 C 0,0 km/h (0 Bft)
_ Min-Zeit 10:08 20:09 10:08 10:08 20:09 17:02 14:00 - 10:08 - - 20:08 10:08 10:08
Minimum _ 6,1 C 2,6 C 0,0 C 0,0 C 71 % 68 % 1041,1 hPa - 0,0 km/h (0 Bft) - - -0,5 C 0,0 C 0,0 km/h (0 Bft)
_ Max-Zeit 16:30 14:00 10:08 10:08 10:08 06:30 10:08 10:08 10:08 - - 09:00 10:08 10:08
Maximum _ 10,1 C 7,9 C 0,0 C 0,0 C 74 % 89 % 1075,8 hPa 0,0 mm 0,0 km/h
N (0 Bft)
- - 5,4 C 0,0 C 0,0 km/h
N (0 Bft)
Durchschnitt _ 7,4 C 5,8 C 0,0 C 0,0 C 73 % 81 % 1055,3 hPa #0,0 mm 0,0 km/h (0 Bft) - - - 2,8 C 0,0 C 0,0 km/h (0 Bft)
P. Bastgen